Airfield :







YOU CAN JOIN US ON...

 
LOGIN :

Register | Disclaimer

   EN    FR    IT 

 









Legend :    VFR   Marginal VFR   IFR   Intensive IFR   Very Intensive IFR
Visi :
Ceiling :
>= 8 km
>= 3000ft
5 to 8 km
1000 to 3000 ft
1500m to 5 km
500 to 1000 ft
800 to 1500m
200 to 500 ft
< 800m
< 200 ft
Symbols :   Thunderstorms  Fog  Heavy snow  Heavy precipitations  Wind > 20 kt







- Airport Elevation : 1270 ft
- IATA code : YMT


CYMT - Chapais

CURRENT METAR :
  • 250437Z AUTO 12004KT 9SM -RASN FEW015 OVC026 00/M00 A2989 RMK SLP141

EXPIRED METARs :
  • 250426Z AUTO 12004KT 9SM -UP FEW015 OVC026 00/M00 A2989 RMK SLP141
  • 250414Z AUTO 12004KT 9SM -RASN OVC028 00/M00 A2989 RMK SLP141
  • 250403Z AUTO 12004KT 5SM -SN SCT022 OVC028 00/M00 A2989 RMK SLP141
  • 250353Z AUTO 12003KT 6SM -SN -UP FEW014 BKN022 OVC030 01/M00 A2989 RMK SLP141
  • 250347Z AUTO 11004KT 5SM -SN FEW016 BKN022 OVC030 01/M00 A2989 RMK SLP141
  • 250331Z AUTO 13002KT 9SM -RA SCT016 OVC024 01/M00 A2989 RMK SLP143
  • 250300Z AUTO 12003KT 9SM FEW016 OVC026 01/M00 A2989 RMK SLP141
  • 250248Z AUTO 11003KT 9SM SCT018 OVC028 00/M00 A2989 RMK SLP141
  • 250232Z AUTO 10004KT 9SM FEW012 BKN020 OVC028 00/M00 A2988 RMK SLP140
  • 250214Z AUTO 09004KT 9SM SCT012 SCT018 SCT024 OVC030 00/M00 A2988 RMK SLP139
  • 250158Z AUTO 10003KT 9SM -SN FEW012 BKN018 BKN025 OVC030 00/M00 A2989 RMK SLP141
  • 250146Z AUTO 10003KT 4SM -SN SCT012 BKN018 OVC034 00/M01 A2989 RMK SLP143

Expired Forecast.
CZUL FIR / North America



MET'MAP, your aeronautical weather chart ! - Copyright ORBIFLY December 2007 - Disclaimer

ORBIFLY MET'MAP TEAM :

Programming & Development : Alexandra Zaïnal
Concept & Development : Baudouin d'Aumeries
Co-Development & Prog : Marc-Olivier Méhu
Technical & hardware support : Manuel Goepfert

Contact : metmap@orbifly.com




SOURCES & CREDITS :

   NOAA